Troutville, Virginia
Current Conditions -  °F | °C
As of 6:54 AM on Saturday 01 Nov 2014 (Local Time) from KROA Reporting Station
Light Rain Light Rain  
Wind Chill: 38°   Ceiling: 2400
Heat Index: 41°   Visibility: 10mi
Dew Point: 39°   Wind: 5mph
Humidity: 93%   Direction: 300°WNW
Pressure: 29.83"   Gusts: NA
Location:  37.42°N, 79.87°W
Report Text: KROA 011054Z 30004KT 10SM -RA SCT018 OVC024 05/04 A2983 RMK AO2 SLP103 P0002 T00500039
Loading
Personal Weather Stations






























Interactive Weather Map
Tropical Storm Tracking
New forecast layout! Learn more

10-Day Weather Forecast

Advertisements
Track Severe Weather on mobile